sensor_id;sensor_type;location;lat;lon;timestamp;P1;durP1;ratioP1;P2;durP2;ratioP2
16308;SDS011;8263;48.880;9.276;2023-04-24T00:01:18;123.07;;;114.78;;
16308;SDS011;8263;48.880;9.276;2023-04-24T00:03:45;122.80;;;114.50;;
16308;SDS011;8263;48.880;9.276;2023-04-24T00:06:12;123.00;;;114.70;;
16308;SDS011;8263;48.880;9.276;2023-04-24T00:08:38;124.07;;;115.68;;
16308;SDS011;8263;48.880;9.276;2023-04-24T00:11:05;122.85;;;114.55;;
16308;SDS011;8263;48.880;9.276;2023-04-24T00:13:33;123.63;;;115.28;;
16308;SDS011;8263;48.880;9.276;2023-04-24T00:16:00;124.82;;;116.22;;
16308;SDS011;8263;48.880;9.276;2023-04-24T00:18:27;124.35;;;115.88;;
16308;SDS011;8263;48.880;9.276;2023-04-24T00:20:53;123.60;;;115.28;;
16308;SDS011;8263;48.880;9.276;2023-04-24T00:23:20;122.60;;;114.30;;
16308;SDS011;8263;48.880;9.276;2023-04-24T00:25:46;123.70;;;115.30;;
16308;SDS011;8263;48.880;9.276;2023-04-24T00:28:12;123.75;;;115.38;;
16308;SDS011;8263;48.880;9.276;2023-04-24T00:30:40;125.35;;;116.85;;
16308;SDS011;8263;48.880;9.276;2023-04-24T00:33:07;125.35;;;116.85;;
16308;SDS011;8263;48.880;9.276;2023-04-24T00:35:34;125.38;;;116.85;;
16308;SDS011;8263;48.880;9.276;2023-04-24T00:38:00;124.30;;;115.90;;
16308;SDS011;8263;48.880;9.276;2023-04-24T00:40:27;123.55;;;115.15;;
16308;SDS011;8263;48.880;9.276;2023-04-24T00:42:54;124.38;;;115.93;;
16308;SDS011;8263;48.880;9.276;2023-04-24T00:45:21;123.68;;;115.30;;
16308;SDS011;8263;48.880;9.276;2023-04-24T00:47:49;123.97;;;115.60;;
16308;SDS011;8263;48.880;9.276;2023-04-24T00:50:18;124.88;;;116.38;;
16308;SDS011;8263;48.880;9.276;2023-04-24T00:52:46;124.53;;;116.07;;
16308;SDS011;8263;48.880;9.276;2023-04-24T00:55:13;125.30;;;116.80;;
16308;SDS011;8263;48.880;9.276;2023-04-24T00:57:40;122.00;;;113.72;;
16308;SDS011;8263;48.880;9.276;2023-04-24T01:00:09;125.45;;;116.95;;
16308;SDS011;8263;48.880;9.276;2023-04-24T01:02:37;125.35;;;116.85;;
16308;SDS011;8263;48.880;9.276;2023-04-24T01:05:07;125.13;;;116.63;;
16308;SDS011;8263;48.880;9.276;2023-04-24T01:07:33;125.60;;;116.38;;
16308;SDS011;8263;48.880;9.276;2023-04-24T01:10:01;125.38;;;116.80;;
16308;SDS011;8263;48.880;9.276;2023-04-24T01:12:28;126.13;;;117.53;;
16308;SDS011;8263;48.880;9.276;2023-04-24T01:14:54;126.22;;;117.63;;
16308;SDS011;8263;48.880;9.276;2023-04-24T01:17:21;123.80;;;115.40;;
16308;SDS011;8263;48.880;9.276;2023-04-24T01:19:48;126.50;;;117.90;;
16308;SDS011;8263;48.880;9.276;2023-04-24T01:22:16;124.35;;;115.93;;
16308;SDS011;8263;48.880;9.276;2023-04-24T01:24:42;125.35;;;116.85;;
16308;SDS011;8263;48.880;9.276;2023-04-24T01:27:09;123.78;;;115.38;;
16308;SDS011;8263;48.880;9.276;2023-04-24T01:29:36;123.72;;;115.32;;
16308;SDS011;8263;48.880;9.276;2023-04-24T01:32:03;125.63;;;117.13;;
16308;SDS011;8263;48.880;9.276;2023-04-24T01:34:30;125.50;;;117.00;;
16308;SDS011;8263;48.880;9.276;2023-04-24T01:36:57;125.00;;;116.50;;
16308;SDS011;8263;48.880;9.276;2023-04-24T01:39:25;126.38;;;117.78;;
16308;SDS011;8263;48.880;9.276;2023-04-24T01:41:53;125.15;;;116.65;;
16308;SDS011;8263;48.880;9.276;2023-04-24T01:44:19;125.15;;;116.65;;
16308;SDS011;8263;48.880;9.276;2023-04-24T01:46:46;124.15;;;115.75;;
16308;SDS011;8263;48.880;9.276;2023-04-24T01:49:13;125.93;;;117.32;;
16308;SDS011;8263;48.880;9.276;2023-04-24T01:51:39;124.25;;;115.85;;
16308;SDS011;8263;48.880;9.276;2023-04-24T01:54:06;125.00;;;116.50;;
16308;SDS011;8263;48.880;9.276;2023-04-24T01:56:34;123.50;;;115.13;;
16308;SDS011;8263;48.880;9.276;2023-04-24T01:59:01;125.43;;;116.93;;
16308;SDS011;8263;48.880;9.276;2023-04-24T02:01:32;125.57;;;117.03;;
16308;SDS011;8263;48.880;9.276;2023-04-24T02:03:59;126.72;;;117.70;;
16308;SDS011;8263;48.880;9.276;2023-04-24T02:06:26;126.72;;;118.13;;
16308;SDS011;8263;48.880;9.276;2023-04-24T02:08:52;126.57;;;117.97;;
16308;SDS011;8263;48.880;9.276;2023-04-24T02:11:19;126.22;;;117.63;;
16308;SDS011;8263;48.880;9.276;2023-04-24T02:13:47;125.32;;;116.82;;
16308;SDS011;8263;48.880;9.276;2023-04-24T02:16:13;122.68;;;114.38;;
16308;SDS011;8263;48.880;9.276;2023-04-24T02:18:40;124.88;;;116.40;;
16308;SDS011;8263;48.880;9.276;2023-04-24T02:21:07;124.50;;;116.00;;
16308;SDS011;8263;48.880;9.276;2023-04-24T02:23:33;124.53;;;116.03;;
16308;SDS011;8263;48.880;9.276;2023-04-24T02:26:00;125.47;;;116.97;;
16308;SDS011;8263;48.880;9.276;2023-04-24T02:28:26;125.80;;;117.22;;
16308;SDS011;8263;48.880;9.276;2023-04-24T02:30:54;125.38;;;116.88;;
16308;SDS011;8263;48.880;9.276;2023-04-24T02:33:21;125.55;;;117.00;;
16308;SDS011;8263;48.880;9.276;2023-04-24T02:35:47;125.53;;;116.97;;
16308;SDS011;8263;48.880;9.276;2023-04-24T02:38:14;125.38;;;116.88;;
16308;SDS011;8263;48.880;9.276;2023-04-24T02:40:40;123.18;;;114.85;;
16308;SDS011;8263;48.880;9.276;2023-04-24T02:43:07;125.78;;;117.22;;
16308;SDS011;8263;48.880;9.276;2023-04-24T02:45:33;125.85;;;117.30;;
16308;SDS011;8263;48.880;9.276;2023-04-24T02:48:02;125.45;;;116.93;;
16308;SDS011;8263;48.880;9.276;2023-04-24T02:50:28;124.90;;;116.40;;
16308;SDS011;8263;48.880;9.276;2023-04-24T02:52:55;122.93;;;114.60;;
16308;SDS011;8263;48.880;9.276;2023-04-24T02:55:21;126.38;;;117.78;;
16308;SDS011;8263;48.880;9.276;2023-04-24T02:57:48;126.43;;;117.82;;
16308;SDS011;8263;48.880;9.276;2023-04-24T03:00:14;126.82;;;118.15;;
16308;SDS011;8263;48.880;9.276;2023-04-24T03:02:41;126.88;;;118.20;;
16308;SDS011;8263;48.880;9.276;2023-04-24T03:05:09;125.75;;;117.18;;
16308;SDS011;8263;48.880;9.276;2023-04-24T03:07:36;125.28;;;116.68;;
16308;SDS011;8263;48.880;9.276;2023-04-24T03:10:03;125.60;;;117.00;;
16308;SDS011;8263;48.880;9.276;2023-04-24T03:12:30;126.72;;;118.13;;
16308;SDS011;8263;48.880;9.276;2023-04-24T03:14:57;126.55;;;117.80;;
16308;SDS011;8263;48.880;9.276;2023-04-24T03:17:24;127.85;;;119.05;;
16308;SDS011;8263;48.880;9.276;2023-04-24T03:19:51;126.20;;;117.60;;
16308;SDS011;8263;48.880;9.276;2023-04-24T03:22:18;127.72;;;118.97;;
16308;SDS011;8263;48.880;9.276;2023-04-24T03:24:45;126.55;;;117.95;;
16308;SDS011;8263;48.880;9.276;2023-04-24T03:27:12;126.78;;;118.10;;
16308;SDS011;8263;48.880;9.276;2023-04-24T03:29:38;125.25;;;116.72;;
16308;SDS011;8263;48.880;9.276;2023-04-24T03:32:05;126.43;;;117.82;;
16308;SDS011;8263;48.880;9.276;2023-04-24T03:34:31;128.15;;;119.35;;
16308;SDS011;8263;48.880;9.276;2023-04-24T03:37:00;125.93;;;117.32;;
16308;SDS011;8263;48.880;9.276;2023-04-24T03:39:30;126.40;;;117.80;;
16308;SDS011;8263;48.880;9.276;2023-04-24T03:41:57;126.13;;;117.53;;
16308;SDS011;8263;48.880;9.276;2023-04-24T03:44:23;126.03;;;117.22;;
16308;SDS011;8263;48.880;9.276;2023-04-24T03:46:52;127.65;;;118.90;;
16308;SDS011;8263;48.880;9.276;2023-04-24T03:49:19;125.63;;;116.90;;
16308;SDS011;8263;48.880;9.276;2023-04-24T03:51:45;127.05;;;118.35;;
16308;SDS011;8263;48.880;9.276;2023-04-24T03:54:12;127.00;;;118.30;;
16308;SDS011;8263;48.880;9.276;2023-04-24T03:56:40;126.50;;;117.90;;
16308;SDS011;8263;48.880;9.276;2023-04-24T03:59:07;128.15;;;119.20;;
16308;SDS011;8263;48.880;9.276;2023-04-24T04:01:33;127.25;;;118.55;;
16308;SDS011;8263;48.880;9.276;2023-04-24T04:04:02;126.85;;;118.15;;
16308;SDS011;8263;48.880;9.276;2023-04-24T04:06:29;127.88;;;119.10;;
16308;SDS011;8263;48.880;9.276;2023-04-24T04:08:55;126.88;;;118.18;;
16308;SDS011;8263;48.880;9.276;2023-04-24T04:11:22;127.07;;;118.38;;
16308;SDS011;8263;48.880;9.276;2023-04-24T04:13:50;125.60;;;117.05;;
16308;SDS011;8263;48.880;9.276;2023-04-24T04:16:17;127.63;;;118.93;;
16308;SDS011;8263;48.880;9.276;2023-04-24T04:18:44;126.63;;;118.00;;
16308;SDS011;8263;48.880;9.276;2023-04-24T04:21:10;128.18;;;119.38;;
16308;SDS011;8263;48.880;9.276;2023-04-24T04:23:37;126.57;;;117.95;;
16308;SDS011;8263;48.880;9.276;2023-04-24T04:26:05;128.18;;;119.38;;
16308;SDS011;8263;48.880;9.276;2023-04-24T04:28:33;126.95;;;118.25;;
16308;SDS011;8263;48.880;9.276;2023-04-24T04:31:01;128.82;;;119.93;;
16308;SDS011;8263;48.880;9.276;2023-04-24T04:33:27;129.82;;;120.82;;
16308;SDS011;8263;48.880;9.276;2023-04-24T04:35:54;127.78;;;118.95;;
16308;SDS011;8263;48.880;9.276;2023-04-24T04:38:21;127.53;;;118.80;;
16308;SDS011;8263;48.880;9.276;2023-04-24T04:40:48;126.80;;;118.13;;
16308;SDS011;8263;48.880;9.276;2023-04-24T04:43:15;129.48;;;120.50;;
16308;SDS011;8263;48.880;9.276;2023-04-24T04:45:41;127.85;;;119.03;;
16308;SDS011;8263;48.880;9.276;2023-04-24T04:48:09;128.65;;;119.82;;
16308;SDS011;8263;48.880;9.276;2023-04-24T04:50:38;129.02;;;120.13;;
16308;SDS011;8263;48.880;9.276;2023-04-24T04:53:05;124.78;;;116.32;;
16308;SDS011;8263;48.880;9.276;2023-04-24T04:55:31;124.22;;;115.80;;
16308;SDS011;8263;48.880;9.276;2023-04-24T04:57:58;119.93;;;111.82;;
16308;SDS011;8263;48.880;9.276;2023-04-24T05:00:25;123.70;;;115.38;;
16308;SDS011;8263;48.880;9.276;2023-04-24T05:02:52;126.55;;;117.95;;
16308;SDS011;8263;48.880;9.276;2023-04-24T05:05:20;125.30;;;116.78;;
16308;SDS011;8263;48.880;9.276;2023-04-24T05:07:46;126.63;;;117.97;;
16308;SDS011;8263;48.880;9.276;2023-04-24T05:10:13;125.95;;;117.32;;
16308;SDS011;8263;48.880;9.276;2023-04-24T05:12:40;127.85;;;119.05;;
16308;SDS011;8263;48.880;9.276;2023-04-24T05:15:07;126.03;;;117.53;;
16308;SDS011;8263;48.880;9.276;2023-04-24T05:17:33;122.47;;;114.18;;
16308;SDS011;8263;48.880;9.276;2023-04-24T05:20:00;126.80;;;118.15;;
16308;SDS011;8263;48.880;9.276;2023-04-24T05:22:30;125.38;;;116.85;;
16308;SDS011;8263;48.880;9.276;2023-04-24T05:24:56;129.32;;;120.43;;
16308;SDS011;8263;48.880;9.276;2023-04-24T05:27:23;127.93;;;119.20;;
16308;SDS011;8263;48.880;9.276;2023-04-24T05:29:49;128.90;;;120.10;;
16308;SDS011;8263;48.880;9.276;2023-04-24T05:32:16;127.50;;;118.22;;
16308;SDS011;8263;48.880;9.276;2023-04-24T05:34:42;127.45;;;118.72;;
16308;SDS011;8263;48.880;9.276;2023-04-24T05:37:09;126.72;;;118.05;;
16308;SDS011;8263;48.880;9.276;2023-04-24T05:39:37;125.43;;;116.82;;
16308;SDS011;8263;48.880;9.276;2023-04-24T05:42:04;126.90;;;118.20;;
16308;SDS011;8263;48.880;9.276;2023-04-24T05:44:31;127.18;;;118.47;;
16308;SDS011;8263;48.880;9.276;2023-04-24T05:46:57;126.25;;;117.57;;
16308;SDS011;8263;48.880;9.276;2023-04-24T05:49:23;129.55;;;120.65;;
16308;SDS011;8263;48.880;9.276;2023-04-24T05:51:50;127.55;;;118.85;;
16308;SDS011;8263;48.880;9.276;2023-04-24T05:54:16;128.50;;;119.65;;
16308;SDS011;8263;48.880;9.276;2023-04-24T05:56:45;129.30;;;120.35;;
16308;SDS011;8263;48.880;9.276;2023-04-24T05:59:11;129.38;;;120.47;;
16308;SDS011;8263;48.880;9.276;2023-04-24T06:01:38;127.85;;;119.05;;
16308;SDS011;8263;48.880;9.276;2023-04-24T06:04:05;129.38;;;120.47;;
16308;SDS011;8263;48.880;9.276;2023-04-24T06:06:32;128.32;;;119.53;;
16308;SDS011;8263;48.880;9.276;2023-04-24T06:08:59;129.38;;;120.43;;
16308;SDS011;8263;48.880;9.276;2023-04-24T06:11:25;128.18;;;119.38;;
16308;SDS011;8263;48.880;9.276;2023-04-24T06:13:54;126.72;;;118.03;;
16308;SDS011;8263;48.880;9.276;2023-04-24T06:16:20;126.47;;;117.78;;
16308;SDS011;8263;48.880;9.276;2023-04-24T06:18:47;129.13;;;120.22;;
16308;SDS011;8263;48.880;9.276;2023-04-24T06:21:14;129.90;;;120.90;;
16308;SDS011;8263;48.880;9.276;2023-04-24T06:23:41;128.75;;;119.93;;
16308;SDS011;8263;48.880;9.276;2023-04-24T06:26:07;128.63;;;119.72;;
16308;SDS011;8263;48.880;9.276;2023-04-24T06:28:34;129.38;;;120.47;;
16308;SDS011;8263;48.880;9.276;2023-04-24T06:31:04;129.68;;;120.68;;
16308;SDS011;8263;48.880;9.276;2023-04-24T06:33:30;128.05;;;119.10;;
16308;SDS011;8263;48.880;9.276;2023-04-24T06:35:57;129.05;;;120.15;;
16308;SDS011;8263;48.880;9.276;2023-04-24T06:38:24;129.35;;;120.40;;
16308;SDS011;8263;48.880;9.276;2023-04-24T06:40:51;128.82;;;119.95;;
16308;SDS011;8263;48.880;9.276;2023-04-24T06:43:17;127.47;;;118.70;;
16308;SDS011;8263;48.880;9.276;2023-04-24T06:45:44;129.80;;;120.80;;
16308;SDS011;8263;48.880;9.276;2023-04-24T06:48:13;128.93;;;120.03;;
16308;SDS011;8263;48.880;9.276;2023-04-24T06:50:40;127.30;;;118.53;;
16308;SDS011;8263;48.880;9.276;2023-04-24T06:53:07;127.95;;;119.15;;
16308;SDS011;8263;48.880;9.276;2023-04-24T06:55:36;128.25;;;119.45;;
16308;SDS011;8263;48.880;9.276;2023-04-24T06:58:02;126.65;;;117.95;;
16308;SDS011;8263;48.880;9.276;2023-04-24T07:00:29;126.50;;;117.80;;
16308;SDS011;8263;48.880;9.276;2023-04-24T07:02:56;129.13;;;120.22;;
16308;SDS011;8263;48.880;9.276;2023-04-24T07:05:24;129.07;;;120.18;;
16308;SDS011;8263;48.880;9.276;2023-04-24T07:07:51;128.50;;;119.68;;
16308;SDS011;8263;48.880;9.276;2023-04-24T07:10:18;126.32;;;117.65;;
16308;SDS011;8263;48.880;9.276;2023-04-24T07:12:46;129.00;;;120.10;;
16308;SDS011;8263;48.880;9.276;2023-04-24T07:15:13;129.23;;;120.32;;
16308;SDS011;8263;48.880;9.276;2023-04-24T07:17:39;129.55;;;120.65;;
16308;SDS011;8263;48.880;9.276;2023-04-24T07:20:08;126.05;;;117.43;;
16308;SDS011;8263;48.880;9.276;2023-04-24T07:22:37;128.48;;;119.60;;
16308;SDS011;8263;48.880;9.276;2023-04-24T07:25:04;127.53;;;118.78;;
16308;SDS011;8263;48.880;9.276;2023-04-24T07:27:31;128.75;;;119.85;;
16308;SDS011;8263;48.880;9.276;2023-04-24T07:29:59;126.68;;;117.85;;
16308;SDS011;8263;48.880;9.276;2023-04-24T07:32:26;128.07;;;119.28;;
16308;SDS011;8263;48.880;9.276;2023-04-24T07:34:53;127.07;;;118.30;;
16308;SDS011;8263;48.880;9.276;2023-04-24T07:37:19;127.47;;;118.78;;
16308;SDS011;8263;48.880;9.276;2023-04-24T07:39:48;128.18;;;119.38;;
16308;SDS011;8263;48.880;9.276;2023-04-24T07:42:14;127.07;;;118.38;;
16308;SDS011;8263;48.880;9.276;2023-04-24T07:44:41;127.10;;;118.40;;
16308;SDS011;8263;48.880;9.276;2023-04-24T07:47:07;128.38;;;119.57;;
16308;SDS011;8263;48.880;9.276;2023-04-24T07:49:34;127.53;;;118.80;;
16308;SDS011;8263;48.880;9.276;2023-04-24T07:52:00;126.78;;;118.07;;
16308;SDS011;8263;48.880;9.276;2023-04-24T07:54:27;128.00;;;119.22;;
16308;SDS011;8263;48.880;9.276;2023-04-24T07:56:56;128.18;;;119.38;;
16308;SDS011;8263;48.880;9.276;2023-04-24T07:59:23;126.78;;;118.10;;
16308;SDS011;8263;48.880;9.276;2023-04-24T08:01:49;128.43;;;119.50;;
16308;SDS011;8263;48.880;9.276;2023-04-24T08:04:16;126.25;;;117.65;;
16308;SDS011;8263;48.880;9.276;2023-04-24T08:06:43;127.80;;;119.00;;
16308;SDS011;8263;48.880;9.276;2023-04-24T08:09:09;126.97;;;118.28;;
16308;SDS011;8263;48.880;9.276;2023-04-24T08:11:36;127.80;;;119.00;;
16308;SDS011;8263;48.880;9.276;2023-04-24T08:14:04;127.82;;;118.88;;
16308;SDS011;8263;48.880;9.276;2023-04-24T08:16:32;126.43;;;117.82;;
16308;SDS011;8263;48.880;9.276;2023-04-24T08:19:03;127.03;;;118.30;;
16308;SDS011;8263;48.880;9.276;2023-04-24T08:21:30;126.82;;;118.13;;
16308;SDS011;8263;48.880;9.276;2023-04-24T08:23:59;127.50;;;118.80;;
16308;SDS011;8263;48.880;9.276;2023-04-24T08:26:30;127.78;;;119.05;;
16308;SDS011;8263;48.880;9.276;2023-04-24T08:28:56;127.40;;;118.68;;
16308;SDS011;8263;48.880;9.276;2023-04-24T08:31:25;128.70;;;119.85;;
16308;SDS011;8263;48.880;9.276;2023-04-24T08:33:52;124.95;;;116.43;;
16308;SDS011;8263;48.880;9.276;2023-04-24T08:36:18;125.35;;;116.82;;
16308;SDS011;8263;48.880;9.276;2023-04-24T08:38:45;125.63;;;117.07;;
16308;SDS011;8263;48.880;9.276;2023-04-24T08:41:11;125.93;;;117.32;;
16308;SDS011;8263;48.880;9.276;2023-04-24T08:43:40;126.53;;;117.90;;
16308;SDS011;8263;48.880;9.276;2023-04-24T08:46:07;126.80;;;118.15;;
16308;SDS011;8263;48.880;9.276;2023-04-24T08:48:36;127.57;;;118.75;;
16308;SDS011;8263;48.880;9.276;2023-04-24T08:51:04;126.00;;;117.40;;
16308;SDS011;8263;48.880;9.276;2023-04-24T08:53:31;126.15;;;117.55;;
16308;SDS011;8263;48.880;9.276;2023-04-24T08:55:58;123.30;;;114.93;;
16308;SDS011;8263;48.880;9.276;2023-04-24T08:58:26;126.75;;;118.15;;
16308;SDS011;8263;48.880;9.276;2023-04-24T09:00:54;125.60;;;117.10;;
16308;SDS011;8263;48.880;9.276;2023-04-24T09:03:21;127.15;;;118.45;;
16308;SDS011;8263;48.880;9.276;2023-04-24T09:05:49;124.78;;;116.30;;
16308;SDS011;8263;48.880;9.276;2023-04-24T09:08:17;122.70;;;114.40;;
16308;SDS011;8263;48.880;9.276;2023-04-24T09:10:44;124.00;;;115.57;;
16308;SDS011;8263;48.880;9.276;2023-04-24T09:13:11;122.28;;;114.03;;
16308;SDS011;8263;48.880;9.276;2023-04-24T09:15:37;124.18;;;115.78;;
16308;SDS011;8263;48.880;9.276;2023-04-24T09:18:05;123.70;;;115.30;;
16308;SDS011;8263;48.880;9.276;2023-04-24T09:20:31;125.55;;;117.05;;
16308;SDS011;8263;48.880;9.276;2023-04-24T09:23:02;125.95;;;117.35;;
16308;SDS011;8263;48.880;9.276;2023-04-24T09:25:31;123.57;;;115.22;;
16308;SDS011;8263;48.880;9.276;2023-04-24T09:28:00;123.50;;;115.18;;
16308;SDS011;8263;48.880;9.276;2023-04-24T09:30:27;123.63;;;115.25;;
16308;SDS011;8263;48.880;9.276;2023-04-24T09:35:35;124.25;;;115.85;;
16308;SDS011;8263;48.880;9.276;2023-04-24T09:38:03;124.18;;;115.78;;
16308;SDS011;8263;48.880;9.276;2023-04-24T09:40:31;123.20;;;114.90;;
16308;SDS011;8263;48.880;9.276;2023-04-24T09:43:00;120.88;;;112.75;;
16308;SDS011;8263;48.880;9.276;2023-04-24T09:45:27;122.72;;;114.43;;
16308;SDS011;8263;48.880;9.276;2023-04-24T09:47:54;124.68;;;116.20;;
16308;SDS011;8263;48.880;9.276;2023-04-24T09:50:21;123.93;;;115.53;;
16308;SDS011;8263;48.880;9.276;2023-04-24T09:52:55;124.93;;;116.40;;
16308;SDS011;8263;48.880;9.276;2023-04-24T09:55:24;123.43;;;115.05;;
16308;SDS011;8263;48.880;9.276;2023-04-24T09:57:52;122.40;;;114.13;;
16308;SDS011;8263;48.880;9.276;2023-04-24T10:00:22;122.97;;;114.63;;
16308;SDS011;8263;48.880;9.276;2023-04-24T10:02:50;120.57;;;112.47;;
16308;SDS011;8263;48.880;9.276;2023-04-24T10:05:18;124.88;;;116.40;;
16308;SDS011;8263;48.880;9.276;2023-04-24T10:07:44;125.38;;;116.45;;
16308;SDS011;8263;48.880;9.276;2023-04-24T10:10:11;124.70;;;116.28;;
16308;SDS011;8263;48.880;9.276;2023-04-24T10:12:39;122.68;;;114.38;;
16308;SDS011;8263;48.880;9.276;2023-04-24T10:15:07;122.85;;;114.55;;
16308;SDS011;8263;48.880;9.276;2023-04-24T10:17:34;124.75;;;116.30;;
16308;SDS011;8263;48.880;9.276;2023-04-24T10:20:01;123.80;;;115.40;;
16308;SDS011;8263;48.880;9.276;2023-04-24T10:22:28;123.80;;;115.45;;
16308;SDS011;8263;48.880;9.276;2023-04-24T10:24:55;121.50;;;113.35;;
16308;SDS011;8263;48.880;9.276;2023-04-24T10:27:22;124.45;;;115.75;;
16308;SDS011;8263;48.880;9.276;2023-04-24T10:29:52;121.13;;;112.95;;
16308;SDS011;8263;48.880;9.276;2023-04-24T10:32:19;123.25;;;114.95;;
16308;SDS011;8263;48.880;9.276;2023-04-24T10:34:46;123.80;;;115.47;;
16308;SDS011;8263;48.880;9.276;2023-04-24T10:37:13;121.82;;;113.63;;
16308;SDS011;8263;48.880;9.276;2023-04-24T10:39:39;122.65;;;114.38;;
16308;SDS011;8263;48.880;9.276;2023-04-24T10:42:13;121.63;;;113.43;;
16308;SDS011;8263;48.880;9.276;2023-04-24T10:44:40;123.28;;;114.88;;
16308;SDS011;8263;48.880;9.276;2023-04-24T10:47:08;121.30;;;113.18;;
16308;SDS011;8263;48.880;9.276;2023-04-24T10:49:38;120.32;;;112.22;;
16308;SDS011;8263;48.880;9.276;2023-04-24T10:52:05;121.65;;;113.45;;
16308;SDS011;8263;48.880;9.276;2023-04-24T10:54:34;120.80;;;112.63;;
16308;SDS011;8263;48.880;9.276;2023-04-24T10:59:42;122.93;;;114.63;;
16308;SDS011;8263;48.880;9.276;2023-04-24T11:02:11;122.07;;;113.80;;
16308;SDS011;8263;48.880;9.276;2023-04-24T11:04:40;122.90;;;114.60;;
16308;SDS011;8263;48.880;9.276;2023-04-24T11:07:08;122.47;;;114.22;;
16308;SDS011;8263;48.880;9.276;2023-04-24T11:09:35;120.97;;;112.85;;
16308;SDS011;8263;48.880;9.276;2023-04-24T11:12:03;122.90;;;114.60;;
16308;SDS011;8263;48.880;9.276;2023-04-24T11:14:31;125.10;;;116.57;;
16308;SDS011;8263;48.880;9.276;2023-04-24T11:17:28;122.65;;;114.30;;
16308;SDS011;8263;48.880;9.276;2023-04-24T11:19:56;120.60;;;112.47;;
16308;SDS011;8263;48.880;9.276;2023-04-24T11:22:26;122.88;;;114.43;;
16308;SDS011;8263;48.880;9.276;2023-04-24T11:24:56;123.95;;;115.55;;
16308;SDS011;8263;48.880;9.276;2023-04-24T11:27:22;123.70;;;115.35;;
16308;SDS011;8263;48.880;9.276;2023-04-24T11:29:58;121.45;;;113.28;;
16308;SDS011;8263;48.880;9.276;2023-04-24T11:32:26;122.00;;;113.80;;
16308;SDS011;8263;48.880;9.276;2023-04-24T11:34:54;121.80;;;113.55;;
16308;SDS011;8263;48.880;9.276;2023-04-24T11:37:22;120.70;;;112.60;;
16308;SDS011;8263;48.880;9.276;2023-04-24T11:39:50;122.13;;;113.93;;
16308;SDS011;8263;48.880;9.276;2023-04-24T11:42:16;123.38;;;115.07;;
16308;SDS011;8263;48.880;9.276;2023-04-24T11:44:43;120.97;;;112.88;;
16308;SDS011;8263;48.880;9.276;2023-04-24T11:47:12;121.45;;;113.25;;
16308;SDS011;8263;48.880;9.276;2023-04-24T11:49:39;123.13;;;114.65;;
16308;SDS011;8263;48.880;9.276;2023-04-24T11:52:07;122.57;;;113.75;;
16308;SDS011;8263;48.880;9.276;2023-04-24T11:54:35;121.55;;;113.35;;
16308;SDS011;8263;48.880;9.276;2023-04-24T11:57:06;122.28;;;114.05;;
16308;SDS011;8263;48.880;9.276;2023-04-24T11:59:36;121.53;;;113.32;;
16308;SDS011;8263;48.880;9.276;2023-04-24T12:02:03;120.35;;;112.25;;
16308;SDS011;8263;48.880;9.276;2023-04-24T12:04:38;122.38;;;114.10;;
16308;SDS011;8263;48.880;9.276;2023-04-24T12:07:04;121.22;;;113.10;;
16308;SDS011;8263;48.880;9.276;2023-04-24T12:09:44;120.78;;;112.57;;
16308;SDS011;8263;48.880;9.276;2023-04-24T12:12:11;120.13;;;112.00;;
16308;SDS011;8263;48.880;9.276;2023-04-24T12:14:44;120.28;;;112.18;;
16308;SDS011;8263;48.880;9.276;2023-04-24T12:17:11;121.97;;;113.78;;
16308;SDS011;8263;48.880;9.276;2023-04-24T12:19:37;122.82;;;114.53;;
16308;SDS011;8263;48.880;9.276;2023-04-24T12:22:04;121.57;;;113.40;;
16308;SDS011;8263;48.880;9.276;2023-04-24T12:24:31;122.20;;;114.00;;
16308;SDS011;8263;48.880;9.276;2023-04-24T12:26:59;122.45;;;114.25;;
16308;SDS011;8263;48.880;9.276;2023-04-24T12:29:26;122.05;;;113.85;;
16308;SDS011;8263;48.880;9.276;2023-04-24T12:31:53;120.40;;;112.30;;
16308;SDS011;8263;48.880;9.276;2023-04-24T12:34:20;121.28;;;113.13;;
16308;SDS011;8263;48.880;9.276;2023-04-24T12:36:47;121.07;;;112.95;;
16308;SDS011;8263;48.880;9.276;2023-04-24T12:39:14;122.53;;;114.22;;
16308;SDS011;8263;48.880;9.276;2023-04-24T12:41:49;121.63;;;113.43;;
16308;SDS011;8263;48.880;9.276;2023-04-24T12:44:17;122.28;;;114.07;;
16308;SDS011;8263;48.880;9.276;2023-04-24T12:46:44;121.90;;;113.70;;
16308;SDS011;8263;48.880;9.276;2023-04-24T12:49:11;121.43;;;113.22;;
16308;SDS011;8263;48.880;9.276;2023-04-24T12:51:37;122.75;;;114.45;;
16308;SDS011;8263;48.880;9.276;2023-04-24T12:54:04;121.13;;;112.97;;
16308;SDS011;8263;48.880;9.276;2023-04-24T12:56:31;121.60;;;113.40;;
16308;SDS011;8263;48.880;9.276;2023-04-24T12:58:58;122.35;;;114.13;;
16308;SDS011;8263;48.880;9.276;2023-04-24T13:01:25;121.70;;;113.50;;
16308;SDS011;8263;48.880;9.276;2023-04-24T13:03:52;122.32;;;114.10;;
16308;SDS011;8263;48.880;9.276;2023-04-24T13:06:19;121.88;;;113.68;;
16308;SDS011;8263;48.880;9.276;2023-04-24T13:08:46;121.55;;;113.35;;
16308;SDS011;8263;48.880;9.276;2023-04-24T13:11:13;119.43;;;111.43;;
16308;SDS011;8263;48.880;9.276;2023-04-24T13:13:40;123.75;;;115.35;;
16308;SDS011;8263;48.880;9.276;2023-04-24T13:16:06;123.82;;;115.47;;
16308;SDS011;8263;48.880;9.276;2023-04-24T13:18:34;122.05;;;113.85;;
16308;SDS011;8263;48.880;9.276;2023-04-24T13:21:01;121.07;;;112.93;;
16308;SDS011;8263;48.880;9.276;2023-04-24T13:23:28;120.95;;;112.85;;
16308;SDS011;8263;48.880;9.276;2023-04-24T13:25:54;119.38;;;111.38;;
16308;SDS011;8263;48.880;9.276;2023-04-24T13:28:23;122.78;;;114.53;;
16308;SDS011;8263;48.880;9.276;2023-04-24T13:30:50;122.15;;;113.95;;
16308;SDS011;8263;48.880;9.276;2023-04-24T13:33:16;121.30;;;113.10;;
16308;SDS011;8263;48.880;9.276;2023-04-24T13:35:45;121.13;;;112.97;;
16308;SDS011;8263;48.880;9.276;2023-04-24T13:38:12;120.20;;;112.13;;
16308;SDS011;8263;48.880;9.276;2023-04-24T13:40:38;119.35;;;111.32;;
16308;SDS011;8263;48.880;9.276;2023-04-24T13:43:05;122.40;;;114.18;;
16308;SDS011;8263;48.880;9.276;2023-04-24T13:45:32;120.32;;;112.22;;
16308;SDS011;8263;48.880;9.276;2023-04-24T13:47:58;122.22;;;113.93;;
16308;SDS011;8263;48.880;9.276;2023-04-24T13:50:26;122.25;;;113.95;;
16308;SDS011;8263;48.880;9.276;2023-04-24T13:52:54;121.38;;;113.18;;
16308;SDS011;8263;48.880;9.276;2023-04-24T13:55:21;120.78;;;112.68;;
16308;SDS011;8263;48.880;9.276;2023-04-24T13:57:48;121.18;;;113.07;;
16308;SDS011;8263;48.880;9.276;2023-04-24T14:00:15;121.22;;;113.03;;
16308;SDS011;8263;48.880;9.276;2023-04-24T14:02:42;121.53;;;113.35;;
16308;SDS011;8263;48.880;9.276;2023-04-24T14:05:09;119.95;;;111.85;;
16308;SDS011;8263;48.880;9.276;2023-04-24T14:07:37;121.30;;;113.10;;
16308;SDS011;8263;48.880;9.276;2023-04-24T14:10:05;121.10;;;113.00;;
16308;SDS011;8263;48.880;9.276;2023-04-24T14:12:32;122.88;;;113.95;;
16308;SDS011;8263;48.880;9.276;2023-04-24T14:14:58;120.20;;;112.15;;